createdAt,value
2018-08-09T00:00:35.551Z,-50
2018-08-09T00:01:31.220Z,-50
2018-08-09T00:03:40.293Z,-51
2018-08-09T00:04:40.960Z,-50
2018-08-09T00:05:44.019Z,-51
2018-08-09T00:06:40.727Z,-50
2018-08-09T00:07:42.085Z,-50
2018-08-09T00:08:42.526Z,-50
2018-08-09T00:09:44.093Z,-50
2018-08-09T00:10:41.896Z,-50
2018-08-09T00:11:37.001Z,-50
2018-08-09T00:12:37.563Z,-50
2018-08-09T00:13:41.713Z,-50
2018-08-09T00:15:53.553Z,-50
2018-08-09T00:16:52.359Z,-50
2018-08-09T00:17:50.580Z,-50
2018-08-09T00:18:47.622Z,-50
2018-08-09T00:19:49.203Z,-50
2018-08-09T00:20:49.926Z,-50
2018-08-09T00:21:48.599Z,-50
2018-08-09T00:22:48.379Z,-50
2018-08-09T00:23:48.018Z,-50
2018-08-09T00:24:52.406Z,-50
2018-08-09T00:25:54.400Z,-50
2018-08-09T00:26:49.120Z,-50
2018-08-09T00:27:56.287Z,-49
2018-08-09T00:28:57.386Z,-49
2018-08-09T00:29:57.072Z,-50
2018-08-09T00:30:51.803Z,-49
2018-08-09T00:33:02.444Z,-50
2018-08-09T00:34:00.631Z,-50
2018-08-09T00:35:00.133Z,-50
2018-08-09T00:35:58.952Z,-50
2018-08-09T00:36:58.821Z,-50
2018-08-09T00:38:00.006Z,-50
2018-08-09T00:38:58.309Z,-50
2018-08-09T00:39:54.572Z,-49
2018-08-09T00:40:55.083Z,-50
2018-08-09T00:41:57.044Z,-49
2018-08-09T00:42:55.338Z,-50
2018-08-09T00:44:00.678Z,-50
2018-08-09T00:44:59.544Z,-50
2018-08-09T00:45:59.535Z,-50
2018-08-09T00:46:59.965Z,-50
2018-08-09T00:47:56.892Z,-50
2018-08-09T00:48:54.278Z,-50
2018-08-09T00:51:04.351Z,-51
2018-08-09T00:52:05.428Z,-50
2018-08-09T00:53:04.489Z,-50
2018-08-09T00:54:03.564Z,-50
2018-08-09T00:55:12.898Z,-50
2018-08-09T00:56:22.922Z,-51
2018-08-09T00:57:20.601Z,-51
2018-08-09T00:58:22.440Z,-50
2018-08-09T00:59:22.272Z,-50
2018-08-09T01:00:21.080Z,-50
2018-08-09T01:01:23.141Z,-51
2018-08-09T01:02:20.765Z,-50
2018-08-09T01:03:19.479Z,-50
2018-08-09T01:05:28.625Z,-50
2018-08-09T01:06:24.930Z,-50
2018-08-09T01:07:32.240Z,-49
2018-08-09T01:08:40.015Z,-50
2018-08-09T01:09:50.328Z,-50
2018-08-09T01:10:48.217Z,-50
2018-08-09T01:11:49.954Z,-50
2018-08-09T01:12:54.622Z,-50
2018-08-09T01:13:49.125Z,-49
2018-08-09T01:14:53.669Z,-49
2018-08-09T01:17:01.805Z,-50
2018-08-09T01:18:04.791Z,-50
2018-08-09T01:19:04.069Z,-50
2018-08-09T01:20:04.330Z,-50
2018-08-09T01:21:11.022Z,-50
2018-08-09T01:22:10.151Z,-50
2018-08-09T01:23:13.947Z,-50
2018-08-09T01:24:11.801Z,-50
2018-08-09T01:25:15.735Z,-50
2018-08-09T01:26:13.227Z,-50
2018-08-09T01:28:31.590Z,-50
2018-08-09T01:29:35.384Z,-51
2018-08-09T01:30:32.832Z,-50
2018-08-09T01:31:30.810Z,-50
2018-08-09T01:32:33.415Z,-50
2018-08-09T01:33:32.315Z,-51
2018-08-09T01:34:31.176Z,-50
2018-08-09T01:35:32.454Z,-50
2018-08-09T01:36:30.240Z,-51
2018-08-09T01:37:33.487Z,-51
2018-08-09T01:38:42.516Z,-50
2018-08-09T01:40:53.766Z,-50
2018-08-09T01:41:53.606Z,-50
2018-08-09T01:42:49.113Z,-49
2018-08-09T01:43:59.670Z,-50
2018-08-09T01:45:00.352Z,-50
2018-08-09T01:46:04.126Z,-50
2018-08-09T01:47:07.222Z,-50
2018-08-09T01:48:06.744Z,-50
2018-08-09T01:49:04.668Z,-50
2018-08-09T01:50:02.090Z,-50
2018-08-09T01:51:02.693Z,-50
2018-08-09T01:52:01.163Z,-50
2018-08-09T01:53:00.155Z,-50
2018-08-09T01:55:08.777Z,-51
2018-08-09T01:56:12.063Z,-50
2018-08-09T01:57:12.637Z,-51
2018-08-09T01:58:13.326Z,-50
2018-08-09T01:59:11.617Z,-50
2018-08-09T02:00:15.193Z,-50
2018-08-09T02:01:18.689Z,-50
2018-08-09T02:02:17.054Z,-49
2018-08-09T02:03:14.955Z,-50
2018-08-09T02:04:17.443Z,-50
2018-08-09T02:05:18.387Z,-50
2018-08-09T02:06:16.902Z,-50
2018-08-09T02:07:14.950Z,-49
2018-08-09T02:08:09.725Z,-50
2018-08-09T02:10:22.997Z,-50
2018-08-09T02:11:25.978Z,-50
2018-08-09T02:12:23.660Z,-50
2018-08-09T02:13:25.719Z,-50
2018-08-09T02:14:27.742Z,-49
2018-08-09T02:15:41.513Z,-50
2018-08-09T02:16:40.530Z,-50
2018-08-09T02:17:38.320Z,-50
2018-08-09T02:18:33.427Z,-50
2018-08-09T02:19:38.184Z,-50
2018-08-09T02:20:31.630Z,-50
2018-08-09T02:21:33.936Z,-50
2018-08-09T02:23:41.774Z,-50
2018-08-09T02:24:54.709Z,-50
2018-08-09T02:25:48.486Z,-50
2018-08-09T02:26:50.320Z,-50
2018-08-09T02:27:58.711Z,-50
2018-08-09T02:28:54.526Z,-50
2018-08-09T02:29:51.969Z,-50
2018-08-09T02:31:00.557Z,-50
2018-08-09T02:32:00.761Z,-50
2018-08-09T02:33:01.787Z,-49
2018-08-09T02:33:57.403Z,-50
2018-08-09T02:34:56.382Z,-50
2018-08-09T02:35:54.833Z,-49
2018-08-09T02:36:53.976Z,-50
2018-08-09T02:39:07.428Z,-50
2018-08-09T02:40:02.673Z,-50
2018-08-09T02:41:03.247Z,-49
2018-08-09T02:42:09.154Z,-50
2018-08-09T02:43:14.074Z,-50
2018-08-09T02:44:17.294Z,-51
2018-08-09T02:45:18.898Z,-50
2018-08-09T02:46:17.113Z,-50
2018-08-09T02:47:13.691Z,-50
2018-08-09T02:48:14.506Z,-50
2018-08-09T02:49:18.069Z,-50
2018-08-09T02:50:12.949Z,-50
2018-08-09T02:51:16.048Z,-49
2018-08-09T02:52:21.254Z,-51
2018-08-09T02:53:18.059Z,-50
2018-08-09T02:54:19.424Z,-50
2018-08-09T02:55:14.639Z,-50
2018-08-09T02:56:21.757Z,-50
2018-08-09T02:57:21.624Z,-50
2018-08-09T02:58:24.835Z,-50
2018-08-09T02:59:20.705Z,-50
2018-08-09T03:00:24.244Z,-50
2018-08-09T03:02:34.873Z,-51
2018-08-09T03:03:39.404Z,-50
2018-08-09T03:04:42.739Z,-50
2018-08-09T03:05:42.253Z,-50
2018-08-09T03:06:40.629Z,-50
2018-08-09T03:07:38.397Z,-50
2018-08-09T03:08:39.027Z,-50
2018-08-09T03:09:45.301Z,-50
2018-08-09T03:10:48.696Z,-49
2018-08-09T03:11:43.136Z,-49
2018-08-09T03:13:55.703Z,-50
2018-08-09T03:15:01.121Z,-49
2018-08-09T03:16:00.602Z,-49
2018-08-09T03:16:59.294Z,-49
2018-08-09T03:17:58.522Z,-49
2018-08-09T03:19:00.277Z,-50
2018-08-09T03:20:00.556Z,-49
2018-08-09T03:21:07.347Z,-49
2018-08-09T03:22:04.126Z,-50
2018-08-09T03:23:05.304Z,-50
2018-08-09T03:24:05.649Z,-50
2018-08-09T03:25:10.269Z,-49
2018-08-09T03:26:14.194Z,-50
2018-08-09T03:28:23.358Z,-51
2018-08-09T03:29:23.295Z,-50
2018-08-09T03:30:28.474Z,-50
2018-08-09T03:31:30.342Z,-50
2018-08-09T03:32:28.673Z,-50
2018-08-09T03:33:28.402Z,-50
2018-08-09T03:34:41.561Z,-50
2018-08-09T03:35:40.852Z,-51
2018-08-09T03:36:43.343Z,-50
2018-08-09T03:38:54.013Z,-50
2018-08-09T03:39:51.879Z,-49
2018-08-09T03:40:51.787Z,-49
2018-08-09T03:41:50.139Z,-50
2018-08-09T03:42:48.946Z,-50
2018-08-09T03:43:47.034Z,-50
2018-08-09T03:44:47.481Z,-50
2018-08-09T03:45:45.653Z,-50
2018-08-09T03:46:52.192Z,-50
2018-08-09T03:48:02.237Z,-50
2018-08-09T03:49:03.488Z,-50
2018-08-09T03:50:11.091Z,-50
2018-08-09T03:51:09.102Z,-50
2018-08-09T03:52:12.056Z,-50
2018-08-09T03:53:17.435Z,-50
2018-08-09T03:55:26.282Z,-50
2018-08-09T03:56:25.486Z,-50
2018-08-09T03:57:31.284Z,-50
2018-08-09T03:58:28.691Z,-50
2018-08-09T03:59:28.646Z,-49
2018-08-09T04:00:27.040Z,-50
2018-08-09T04:01:28.306Z,-50
2018-08-09T04:02:26.244Z,-50
2018-08-09T04:03:28.611Z,-49
2018-08-09T04:04:27.020Z,-50
2018-08-09T04:05:27.941Z,-50
2018-08-09T04:06:22.664Z,-50
2018-08-09T04:07:23.949Z,-50
2018-08-09T04:08:27.583Z,-49
2018-08-09T04:09:30.243Z,-50
2018-08-09T04:10:30.894Z,-50
2018-08-09T04:11:29.431Z,-50
2018-08-09T04:12:29.461Z,-50
2018-08-09T04:13:28.060Z,-50
2018-08-09T04:14:26.032Z,-50
2018-08-09T04:15:23.202Z,-50
2018-08-09T04:16:22.250Z,-50
2018-08-09T04:18:39.466Z,-52
2018-08-09T04:19:37.743Z,-50
2018-08-09T04:20:35.940Z,-50
2018-08-09T04:22:02.587Z,-54
2018-08-09T04:23:03.649Z,-49
2018-08-09T04:24:01.522Z,-50
2018-08-09T04:25:06.144Z,-49
2018-08-09T04:26:04.867Z,-50
2018-08-09T04:27:03.833Z,-49
2018-08-09T04:28:03.758Z,-49
2018-08-09T04:29:10.031Z,-48
2018-08-09T04:30:09.677Z,-50
2018-08-09T04:32:18.154Z,-50
2018-08-09T04:33:17.598Z,-49
2018-08-09T04:34:15.134Z,-49
2018-08-09T04:35:12.926Z,-49
2018-08-09T04:36:14.710Z,-50
2018-08-09T04:37:17.183Z,-50
2018-08-09T04:38:14.312Z,-49
2018-08-09T04:39:15.689Z,-50
2018-08-09T04:40:23.352Z,-49
2018-08-09T04:41:22.124Z,-49
2018-08-09T04:42:17.069Z,-50
2018-08-09T04:43:17.514Z,-50
2018-08-09T04:44:16.492Z,-50
2018-08-09T04:45:18.218Z,-50
2018-08-09T04:46:37.563Z,-50
2018-08-09T04:47:48.940Z,-49
2018-08-09T04:50:09.535Z,-50
2018-08-09T04:51:07.188Z,-50
2018-08-09T04:52:18.589Z,-49
2018-08-09T04:53:16.533Z,-49
2018-08-09T04:54:17.750Z,-50
2018-08-09T04:55:15.932Z,-49
2018-08-09T04:56:21.005Z,-49
2018-08-09T04:57:18.921Z,-49
2018-08-09T04:58:26.720Z,-48
2018-08-09T04:59:22.837Z,-50
2018-08-09T05:00:23.579Z,-49
2018-08-09T05:01:23.545Z,-49
2018-08-09T05:02:23.602Z,-49
2018-08-09T05:03:24.087Z,-49
2018-08-09T05:04:20.035Z,-49
2018-08-09T05:05:17.097Z,-49
2018-08-09T05:06:22.831Z,-49
2018-08-09T05:07:28.801Z,-49
2018-08-09T05:09:38.706Z,-50
2018-08-09T05:10:45.250Z,-49
2018-08-09T05:11:45.601Z,-49
2018-08-09T05:12:29.379Z,-49
2018-08-09T05:13:27.923Z,-49
2018-08-09T05:14:22.537Z,-49
2018-08-09T05:15:28.295Z,-49
2018-08-09T05:16:32.109Z,-48
2018-08-09T05:17:35.060Z,-49
2018-08-09T05:18:35.196Z,-49
2018-08-09T05:19:35.444Z,-49
2018-08-09T05:21:54.553Z,-49
2018-08-09T05:22:52.286Z,-48
2018-08-09T05:23:50.665Z,-49
2018-08-09T05:24:49.588Z,-49
2018-08-09T05:25:48.878Z,-49
2018-08-09T05:26:52.169Z,-49
2018-08-09T05:27:48.009Z,-49
2018-08-09T05:28:47.165Z,-49
2018-08-09T05:29:49.155Z,-49
2018-08-09T05:30:50.246Z,-49
2018-08-09T05:31:45.626Z,-49
2018-08-09T05:33:52.979Z,-49
2018-08-09T05:34:47.832Z,-48
2018-08-09T05:35:58.645Z,-48
2018-08-09T05:36:56.477Z,-49
2018-08-09T05:37:56.611Z,-49
2018-08-09T05:38:57.629Z,-48
2018-08-09T05:40:00.914Z,-48
2018-08-09T05:40:59.784Z,-49
2018-08-09T05:42:00.446Z,-49
2018-08-09T05:43:04.724Z,-48
2018-08-09T05:44:01.699Z,-49
2018-08-09T05:46:13.792Z,-49
2018-08-09T05:47:11.955Z,-49
2018-08-09T05:48:10.000Z,-50
2018-08-09T05:49:14.159Z,-49
2018-08-09T05:50:15.550Z,-49
2018-08-09T05:51:12.108Z,-49
2018-08-09T05:52:11.540Z,-49
2018-08-09T05:53:13.794Z,-50
2018-08-09T05:54:11.304Z,-50
2018-08-09T05:55:16.153Z,-50
2018-08-09T05:56:11.209Z,-50
2018-08-09T05:58:19.583Z,-50
2018-08-09T05:59:25.248Z,-49
2018-08-09T06:00:27.234Z,-50
2018-08-09T06:01:24.773Z,-49
2018-08-09T06:02:22.472Z,-49
2018-08-09T06:03:20.963Z,-50
2018-08-09T06:04:19.602Z,-49
2018-08-09T06:05:20.053Z,-49
2018-08-09T06:06:20.614Z,-48
2018-08-09T06:07:18.114Z,-50
2018-08-09T06:08:14.614Z,-49
2018-08-09T06:10:25.406Z,-50
2018-08-09T06:11:28.432Z,-49
2018-08-09T06:12:33.567Z,-47
2018-08-09T06:13:33.450Z,-47
2018-08-09T06:14:31.032Z,-47
2018-08-09T06:15:32.058Z,-47
2018-08-09T06:16:31.546Z,-47
2018-08-09T06:17:32.716Z,-48
2018-08-09T06:18:34.396Z,-47
2018-08-09T06:19:30.151Z,-47
2018-08-09T06:21:41.336Z,-48
2018-08-09T06:22:41.831Z,-47
2018-08-09T06:23:39.895Z,-47
2018-08-09T06:24:38.773Z,-47
2018-08-09T06:25:34.793Z,-48
2018-08-09T06:26:53.147Z,-47
2018-08-09T06:27:51.425Z,-49
2018-08-09T06:28:56.034Z,-48
2018-08-09T06:29:50.944Z,-47
2018-08-09T06:30:55.211Z,-48
2018-08-09T06:31:53.667Z,-48
2018-08-09T06:32:51.681Z,-47
2018-08-09T06:33:54.009Z,-48
2018-08-09T06:35:01.318Z,-47
2018-08-09T06:35:59.187Z,-48
2018-08-09T06:36:57.351Z,-48
2018-08-09T06:38:05.543Z,-49
2018-08-09T06:40:17.261Z,-49
2018-08-09T06:41:24.790Z,-48
2018-08-09T06:42:22.496Z,-49
2018-08-09T06:43:23.296Z,-49
2018-08-09T06:44:23.805Z,-49
2018-08-09T06:45:24.352Z,-49
2018-08-09T06:46:26.651Z,-49
2018-08-09T06:47:25.501Z,-49
2018-08-09T06:48:25.416Z,-48
2018-08-09T06:49:22.874Z,-47
2018-08-09T06:50:27.051Z,-48
2018-08-09T06:51:30.444Z,-47
2018-08-09T06:52:28.721Z,-47
2018-08-09T06:53:24.024Z,-47
2018-08-09T06:55:32.552Z,-49
2018-08-09T06:56:31.352Z,-49
2018-08-09T06:57:29.082Z,-49
2018-08-09T06:58:36.404Z,-49
2018-08-09T06:59:31.881Z,-49
2018-08-09T07:00:33.009Z,-48
2018-08-09T07:01:37.107Z,-48
2018-08-09T07:02:38.976Z,-48
2018-08-09T07:03:33.970Z,-48
2018-08-09T07:04:37.207Z,-47
2018-08-09T07:05:38.297Z,-47
2018-08-09T07:06:43.570Z,-47
2018-08-09T07:08:54.297Z,-48
2018-08-09T07:09:52.883Z,-47
2018-08-09T07:10:53.332Z,-48
2018-08-09T07:11:50.978Z,-48
2018-08-09T07:12:54.135Z,-47
2018-08-09T07:13:48.621Z,-47
2018-08-09T07:14:51.006Z,-47
2018-08-09T07:15:47.420Z,-47
2018-08-09T07:16:47.547Z,-47
2018-08-09T07:17:50.675Z,-47
2018-08-09T07:18:53.797Z,-47
2018-08-09T07:19:54.839Z,-46
2018-08-09T07:20:54.777Z,-46
2018-08-09T07:21:52.207Z,-47
2018-08-09T07:22:53.384Z,-48
2018-08-09T07:23:51.115Z,-48
2018-08-09T07:24:55.467Z,-48
2018-08-09T07:25:50.412Z,-47
2018-08-09T07:26:48.034Z,-47
2018-08-09T07:29:09.670Z,-48
2018-08-09T07:30:17.047Z,-47
2018-08-09T07:31:18.553Z,-47
2018-08-09T07:32:21.612Z,-47
2018-08-09T07:33:21.110Z,-48
2018-08-09T07:34:20.317Z,-49
2018-08-09T07:35:21.692Z,-48
2018-08-09T07:36:34.348Z,-48
2018-08-09T07:37:29.656Z,-49
2018-08-09T07:38:33.977Z,-48
2018-08-09T07:40:41.420Z,-49
2018-08-09T07:41:40.483Z,-49
2018-08-09T07:42:38.542Z,-48
2018-08-09T07:43:34.411Z,-48
2018-08-09T07:44:36.663Z,-48
2018-08-09T07:45:36.633Z,-48
2018-08-09T07:46:34.534Z,-48
2018-08-09T07:47:32.881Z,-48
2018-08-09T07:48:30.673Z,-49
2018-08-09T07:49:29.010Z,-49
2018-08-09T07:50:28.132Z,-49
2018-08-09T07:51:27.516Z,-49
2018-08-09T07:52:23.405Z,-48
2018-08-09T07:53:20.674Z,-48
2018-08-09T07:54:18.652Z,-49
2018-08-09T07:55:19.520Z,-49
2018-08-09T07:56:26.875Z,-49
2018-08-09T07:58:39.376Z,-49
2018-08-09T07:59:40.376Z,-48
2018-08-09T08:00:42.322Z,-48
2018-08-09T08:01:42.945Z,-48
2018-08-09T08:02:41.263Z,-48
2018-08-09T08:03:45.269Z,-49
2018-08-09T08:04:45.294Z,-48
2018-08-09T08:05:43.988Z,-48
2018-08-09T08:06:42.807Z,-49
2018-08-09T08:07:40.850Z,-48
2018-08-09T08:09:48.683Z,-48
2018-08-09T08:10:54.103Z,-48
2018-08-09T08:11:54.937Z,-48
2018-08-09T08:13:00.639Z,-48
2018-08-09T08:14:02.023Z,-48
2018-08-09T08:15:06.570Z,-49
2018-08-09T08:16:05.572Z,-48
2018-08-09T08:17:11.006Z,-48
2018-08-09T08:18:15.692Z,-48
2018-08-09T08:19:15.167Z,-48
2018-08-09T08:21:30.420Z,-49
2018-08-09T08:22:29.657Z,-48
2018-08-09T08:23:26.728Z,-48
2018-08-09T08:24:27.407Z,-49
2018-08-09T08:25:27.112Z,-49
2018-08-09T08:26:26.939Z,-50
2018-08-09T08:27:26.524Z,-49
2018-08-09T08:28:29.573Z,-49
2018-08-09T08:29:25.397Z,-49
2018-08-09T08:30:26.195Z,-49
2018-08-09T08:31:21.576Z,-49
2018-08-09T08:33:30.740Z,-49
2018-08-09T08:34:29.885Z,-49
2018-08-09T08:35:30.556Z,-49
2018-08-09T08:36:28.769Z,-48
2018-08-09T08:37:28.643Z,-48
2018-08-09T08:38:25.393Z,-48
2018-08-09T08:39:27.342Z,-48
2018-08-09T08:40:28.875Z,-48
2018-08-09T08:41:26.554Z,-48
2018-08-09T08:42:35.993Z,-49
2018-08-09T08:43:31.544Z,-49
2018-08-09T08:45:41.026Z,-49
2018-08-09T08:46:39.487Z,-49
2018-08-09T08:47:48.115Z,-48
2018-08-09T08:48:47.045Z,-48
2018-08-09T08:49:45.502Z,-49
2018-08-09T08:50:52.100Z,-54
2018-08-09T08:51:48.385Z,-48
2018-08-09T08:52:56.961Z,-50
2018-08-09T08:53:59.586Z,-48
2018-08-09T08:55:01.782Z,-47
2018-08-09T08:57:06.609Z,-49
2018-08-09T08:58:08.904Z,-48
2018-08-09T08:59:05.376Z,-48
2018-08-09T09:00:12.688Z,-48
2018-08-09T09:01:15.798Z,-47
2018-08-09T09:02:20.699Z,-48
2018-08-09T09:03:16.419Z,-49
2018-08-09T09:04:20.327Z,-48
2018-08-09T09:05:17.136Z,-48
2018-08-09T09:06:18.458Z,-48
2018-08-09T09:07:15.140Z,-48
2018-08-09T09:08:14.004Z,-48
2018-08-09T09:10:21.151Z,-48
2018-08-09T09:11:23.860Z,-48
2018-08-09T09:12:27.978Z,-47
2018-08-09T09:13:22.669Z,-47
2018-08-09T09:14:23.391Z,-47
2018-08-09T09:15:25.041Z,-47
2018-08-09T09:16:24.200Z,-48
2018-08-09T09:17:24.826Z,-48
2018-08-09T09:18:26.556Z,-48
2018-08-09T09:19:25.497Z,-48
2018-08-09T09:20:28.162Z,-48
2018-08-09T09:21:26.888Z,-47
2018-08-09T09:22:29.795Z,-47
2018-08-09T09:23:25.749Z,-48
2018-08-09T09:24:27.856Z,-49
2018-08-09T09:25:26.194Z,-47
2018-08-09T09:26:26.431Z,-49
2018-08-09T09:27:22.130Z,-53
2018-08-09T09:29:32.438Z,-49
2018-08-09T09:30:30.295Z,-48
2018-08-09T09:31:28.307Z,-48
2018-08-09T09:32:26.632Z,-48
2018-08-09T09:33:25.800Z,-46
2018-08-09T09:34:30.569Z,-46
2018-08-09T09:35:28.821Z,-47
2018-08-09T09:36:26.489Z,-46
2018-08-09T09:37:29.425Z,-46
2018-08-09T09:38:27.775Z,-46
2018-08-09T09:39:26.788Z,-47
2018-08-09T09:40:26.732Z,-47
2018-08-09T09:42:34.104Z,-48
2018-08-09T09:43:34.011Z,-46
2018-08-09T09:44:36.157Z,-47
2018-08-09T09:45:34.186Z,-46
2018-08-09T09:46:34.751Z,-46
2018-08-09T09:47:32.531Z,-46
2018-08-09T09:48:31.785Z,-47
2018-08-09T09:49:31.278Z,-46
2018-08-09T09:50:29.107Z,-47
2018-08-09T09:51:27.215Z,-47
2018-08-09T09:52:30.833Z,-46
2018-08-09T09:53:28.629Z,-46
2018-08-09T09:54:27.917Z,-47
2018-08-09T09:55:26.345Z,-47
2018-08-09T09:56:25.075Z,-48
2018-08-09T09:58:41.100Z,-47
2018-08-09T09:59:43.377Z,-46
2018-08-09T10:00:43.848Z,-47
2018-08-09T10:01:42.369Z,-47
2018-08-09T10:02:41.734Z,-48
2018-08-09T10:03:39.341Z,-47
2018-08-09T10:04:38.656Z,-48
2018-08-09T10:05:41.883Z,-46
2018-08-09T10:06:40.063Z,-47
2018-08-09T10:07:38.946Z,-47
2018-08-09T10:09:47.068Z,-47
2018-08-09T10:10:47.754Z,-46
2018-08-09T10:11:48.310Z,-46
2018-08-09T10:12:47.525Z,-46
2018-08-09T10:13:45.376Z,-46
2018-08-09T10:14:46.341Z,-46
2018-08-09T10:15:46.231Z,-48
2018-08-09T10:16:45.596Z,-46
2018-08-09T10:17:44.312Z,-47
2018-08-09T10:18:43.734Z,-48
2018-08-09T10:19:43.209Z,-46
2018-08-09T10:20:41.780Z,-48
2018-08-09T10:21:41.569Z,-47
2018-08-09T10:22:40.487Z,-47
2018-08-09T10:24:48.864Z,-46
2018-08-09T10:25:46.705Z,-46
2018-08-09T10:26:44.736Z,-46
2018-08-09T10:27:44.513Z,-47
2018-08-09T10:28:46.304Z,-46
2018-08-09T10:29:42.839Z,-46
2018-08-09T10:30:43.626Z,-46
2018-08-09T10:31:40.783Z,-46
2018-08-09T10:32:41.565Z,-47
2018-08-09T10:33:43.615Z,-47
2018-08-09T10:34:40.917Z,-47
2018-08-09T10:35:39.409Z,-47
2018-08-09T10:36:38.161Z,-47
2018-08-09T10:37:34.097Z,-47
2018-08-09T10:39:45.116Z,-47
2018-08-09T10:40:43.877Z,-46
2018-08-09T10:41:44.304Z,-47
2018-08-09T10:42:41.707Z,-47
2018-08-09T10:43:43.979Z,-47
2018-08-09T10:44:46.507Z,-47
2018-08-09T10:45:45.442Z,-47
2018-08-09T10:46:45.180Z,-46
2018-08-09T10:47:40.228Z,-47
2018-08-09T10:48:39.477Z,-46
2018-08-09T10:50:52.437Z,-47
2018-08-09T10:51:50.761Z,-47
2018-08-09T10:52:47.338Z,-46
2018-08-09T10:53:51.055Z,-46
2018-08-09T10:54:48.122Z,-46
2018-08-09T10:55:55.465Z,-45
2018-08-09T10:56:53.391Z,-47
2018-08-09T10:57:55.820Z,-46
2018-08-09T10:58:53.496Z,-46
2018-08-09T10:59:53.781Z,-46
2018-08-09T11:00:48.982Z,-46
2018-08-09T11:02:58.689Z,-48
2018-08-09T11:03:58.440Z,-46
2018-08-09T11:04:57.192Z,-46
2018-08-09T11:05:58.086Z,-46
2018-08-09T11:06:56.157Z,-45
2018-08-09T11:07:53.890Z,-46
2018-08-09T11:08:59.529Z,-46
2018-08-09T11:10:03.763Z,-47
2018-08-09T11:11:03.229Z,-48
2018-08-09T11:12:01.389Z,-47
2018-08-09T11:14:17.436Z,-47
2018-08-09T11:15:20.126Z,-47
2018-08-09T11:16:21.587Z,-46
2018-08-09T11:17:23.861Z,-47
2018-08-09T11:18:19.952Z,-47
2018-08-09T11:19:19.221Z,-46
2018-08-09T11:20:24.463Z,-47
2018-08-09T11:21:22.414Z,-47
2018-08-09T11:22:20.632Z,-46
2018-08-09T11:23:20.126Z,-47
2018-08-09T11:24:20.060Z,-47
2018-08-09T11:25:19.155Z,-46
2018-08-09T11:27:39.482Z,-47
2018-08-09T11:28:45.670Z,-47
2018-08-09T11:29:43.490Z,-48
2018-08-09T11:30:43.741Z,-49
2018-08-09T11:31:45.530Z,-46
2018-08-09T11:32:41.462Z,-47
2018-08-09T11:33:43.139Z,-48
2018-08-09T11:34:41.494Z,-48
2018-08-09T11:35:42.980Z,-47
2018-08-09T11:36:44.431Z,-47
2018-08-09T11:37:47.388Z,-46
2018-08-09T11:38:45.385Z,-48
2018-08-09T11:39:48.270Z,-47
2018-08-09T11:40:45.552Z,-47
2018-08-09T11:41:48.546Z,-47
2018-08-09T11:43:55.103Z,-48
2018-08-09T11:44:53.533Z,-46
2018-08-09T11:45:52.721Z,-46
2018-08-09T11:46:52.381Z,-47
2018-08-09T11:47:47.511Z,-46
2018-08-09T11:48:48.545Z,-46
2018-08-09T11:49:47.793Z,-47
2018-08-09T11:50:46.323Z,-48
2018-08-09T11:51:45.453Z,-46
2018-08-09T11:52:44.174Z,-48
2018-08-09T11:53:42.039Z,-47
2018-08-09T11:54:44.888Z,-48
2018-08-09T11:55:41.978Z,-48
2018-08-09T11:56:42.487Z,-48
2018-08-09T11:57:48.098Z,-47
2018-08-09T11:58:48.274Z,-48
2018-08-09T11:59:47.036Z,-47
2018-08-09T12:00:46.371Z,-47
2018-08-09T12:01:44.489Z,-48
2018-08-09T12:02:40.989Z,-48
2018-08-09T12:03:42.657Z,-47
2018-08-09T12:05:57.202Z,-47
2018-08-09T12:06:58.359Z,-46
2018-08-09T12:07:59.629Z,-46
2018-08-09T12:08:57.463Z,-46
2018-08-09T12:09:57.550Z,-47
2018-08-09T12:10:59.122Z,-47
2018-08-09T12:12:02.349Z,-47
2018-08-09T12:13:00.463Z,-47
2018-08-09T12:13:55.281Z,-47
2018-08-09T12:16:02.788Z,-47
2018-08-09T12:17:04.437Z,-48
2018-08-09T12:18:02.227Z,-48
2018-08-09T12:19:00.714Z,-47
2018-08-09T12:20:00.936Z,-47
2018-08-09T12:21:02.416Z,-47
2018-08-09T12:22:04.461Z,-47
2018-08-09T12:23:04.867Z,-46
2018-08-09T12:24:17.576Z,-47
2018-08-09T12:25:10.203Z,-47
2018-08-09T12:27:24.987Z,-47
2018-08-09T12:28:26.328Z,-47
2018-08-09T12:29:24.625Z,-48
2018-08-09T12:30:22.839Z,-48
2018-08-09T12:31:32.673Z,-48
2018-08-09T12:32:31.192Z,-47
2018-08-09T12:33:26.037Z,-47
2018-08-09T12:34:28.378Z,-47
2018-08-09T12:35:26.054Z,-47
2018-08-09T12:36:25.796Z,-50
2018-08-09T12:37:26.327Z,-47
2018-08-09T12:38:20.881Z,-47
2018-08-09T12:40:31.723Z,-48
2018-08-09T12:41:32.348Z,-47
2018-08-09T12:42:33.955Z,-48
2018-08-09T12:43:36.335Z,-47
2018-08-09T12:44:31.122Z,-47
2018-08-09T12:45:49.838Z,-46
2018-08-09T12:46:48.508Z,-47
2018-08-09T12:47:53.058Z,-47
2018-08-09T12:48:51.201Z,-47
2018-08-09T12:49:51.117Z,-48
2018-08-09T12:50:50.918Z,-47
2018-08-09T12:51:53.906Z,-47
2018-08-09T12:52:53.604Z,-47
2018-08-09T12:53:54.749Z,-47
2018-08-09T12:54:50.846Z,-47
2018-08-09T12:55:54.152Z,-47
2018-08-09T12:58:01.034Z,-47
2018-08-09T12:59:01.873Z,-50
2018-08-09T13:00:03.053Z,-47
2018-08-09T13:01:00.964Z,-47
2018-08-09T13:02:05.932Z,-48
2018-08-09T13:03:04.838Z,-46
2018-08-09T13:04:03.640Z,-47
2018-08-09T13:05:06.294Z,-46
2018-08-09T13:06:05.729Z,-47
2018-08-09T13:06:59.035Z,-47
2018-08-09T13:09:11.641Z,-47
2018-08-09T13:10:13.695Z,-46
2018-08-09T13:11:12.589Z,-47
2018-08-09T13:12:13.189Z,-47
2018-08-09T13:13:10.779Z,-47
2018-08-09T13:14:14.074Z,-46
2018-08-09T13:15:13.294Z,-47
2018-08-09T13:16:11.406Z,-46
2018-08-09T13:17:09.271Z,-46
2018-08-09T13:18:13.695Z,-46
2018-08-09T13:19:16.666Z,-46
2018-08-09T13:20:11.561Z,-47
2018-08-09T13:22:24.277Z,-47
2018-08-09T13:23:23.154Z,-47
2018-08-09T13:24:24.135Z,-47
2018-08-09T13:25:21.950Z,-47
2018-08-09T13:26:27.363Z,-47
2018-08-09T13:27:25.314Z,-47
2018-08-09T13:28:27.996Z,-47
2018-08-09T13:29:29.738Z,-47
2018-08-09T13:30:34.241Z,-47
2018-08-09T13:31:34.013Z,-46
2018-08-09T13:32:40.574Z,-47
2018-08-09T13:33:42.461Z,-47
2018-08-09T13:34:41.263Z,-47
2018-08-09T13:35:44.521Z,-47
2018-08-09T13:36:48.741Z,-46
2018-08-09T13:37:47.594Z,-47
2018-08-09T13:38:45.516Z,-47
2018-08-09T13:39:47.252Z,-47
2018-08-09T13:41:57.673Z,-47
2018-08-09T13:43:05.375Z,-46
2018-08-09T13:44:03.598Z,-46
2018-08-09T13:45:03.339Z,-48
2018-08-09T13:46:11.928Z,-46
2018-08-09T13:47:10.648Z,-47
2018-08-09T13:48:17.089Z,-47
2018-08-09T13:49:15.440Z,-47
2018-08-09T13:50:17.524Z,-48
2018-08-09T13:51:18.001Z,-47
2018-08-09T13:52:17.954Z,-47
2018-08-09T13:53:20.622Z,-47
2018-08-09T13:54:21.212Z,-47
2018-08-09T13:55:19.775Z,-47
2018-08-09T13:56:20.323Z,-47
2018-08-09T13:57:25.336Z,-49
2018-08-09T13:59:37.879Z,-48
2018-08-09T14:00:38.261Z,-46
2018-08-09T14:01:36.572Z,-47
2018-08-09T14:02:35.803Z,-47
2018-08-09T14:03:34.023Z,-49
2018-08-09T14:04:43.107Z,-46
2018-08-09T14:05:39.542Z,-46
2018-08-09T14:06:41.476Z,-46
2018-08-09T14:07:40.035Z,-48
2018-08-09T14:09:55.409Z,-46
2018-08-09T14:10:53.875Z,-48
2018-08-09T14:11:54.830Z,-45
2018-08-09T14:12:56.662Z,-46
2018-08-09T14:13:56.097Z,-47
2018-08-09T14:14:51.309Z,-46
2018-08-09T14:15:55.257Z,-45
2018-08-09T14:16:55.572Z,-45
2018-08-09T14:17:53.525Z,-46
2018-08-09T14:18:49.760Z,-47
2018-08-09T14:20:01.939Z,-46
2018-08-09T14:21:02.763Z,-46
2018-08-09T14:21:57.571Z,-46
2018-08-09T14:24:09.128Z,-46
2018-08-09T14:25:07.078Z,-46
2018-08-09T14:26:04.891Z,-47
2018-08-09T14:27:06.663Z,-46
2018-08-09T14:28:07.182Z,-48
2018-08-09T14:29:18.107Z,-47
2018-08-09T14:30:17.801Z,-48
2018-08-09T14:31:21.607Z,-48
2018-08-09T14:32:17.027Z,-46
2018-08-09T14:33:18.738Z,-46
2018-08-09T14:34:18.057Z,-48
2018-08-09T14:35:15.769Z,-46
2018-08-09T14:36:14.406Z,-46
2018-08-09T14:38:34.474Z,-47
2018-08-09T14:39:35.507Z,-46
2018-08-09T14:40:40.421Z,-46
2018-08-09T14:41:43.982Z,-48
2018-08-09T14:42:40.662Z,-46
2018-08-09T14:43:39.744Z,-46
2018-08-09T14:44:41.989Z,-47
2018-08-09T14:45:54.276Z,-47
2018-08-09T14:46:52.172Z,-46
2018-08-09T14:47:51.271Z,-46
2018-08-09T14:50:04.716Z,-48
2018-08-09T14:51:02.256Z,-49
2018-08-09T14:52:00.785Z,-46
2018-08-09T14:53:07.188Z,-46
2018-08-09T14:54:09.135Z,-46
2018-08-09T14:55:07.516Z,-46
2018-08-09T14:56:14.628Z,-46
2018-08-09T14:57:27.399Z,-46
2018-08-09T14:58:25.487Z,-46
2018-08-09T14:59:23.572Z,-46
2018-08-09T15:00:21.895Z,-46
2018-08-09T15:02:28.760Z,-46
2018-08-09T15:03:26.987Z,-48
2018-08-09T15:04:29.516Z,-46
2018-08-09T15:05:34.021Z,-47
2018-08-09T15:06:32.337Z,-48
2018-08-09T15:07:32.380Z,-46
2018-08-09T15:08:33.319Z,-46
2018-08-09T15:09:31.708Z,-50